Time;durP1;ratioP1;P1;durP2;ratioP2;P2;SDS_P1;SDS_P2;PMS_P1;PMS_P2;Temp;Humidity;BMP_temperature;BMP_pressure;BME280_temperature;BME280_humidity;BME280_pressure;Samples;Min_cycle;Max_cycle;Signal;HPM_P1;HPM_P2
2023/10/05 00:01:27;;;;;;;11.32;6.30;;;;;;;;;;5113247;28;20039;-51
2023/10/05 00:03:54;;;;;;;12.77;6.35;;;;;;;;;;5104786;28;20126;-55
2023/10/05 00:06:24;;;;;;;11.60;6.03;;;;;;;;;;5113544;28;20043;-53
2023/10/05 00:08:52;;;;;;;10.00;5.40;;;;;;;;;;5113276;28;20126;-50
2023/10/05 00:11:24;;;;;;;14.93;5.88;;;;;;;;;;5113212;28;20566;-54
2023/10/05 00:13:52;;;;;;;9.18;5.20;;;;;;;;;;5105409;28;20123;-55
2023/10/05 00:16:21;;;;;;;11.40;5.65;;;;;;;;;;5105127;28;20122;-50
2023/10/05 00:18:50;;;;;;;10.30;5.40;;;;;;;;;;5104974;28;20519;-49
2023/10/05 00:21:19;;;;;;;9.68;5.60;;;;;;;;;;5113025;28;20448;-52
2023/10/05 00:23:50;;;;;;;11.88;5.38;;;;;;;;;;5112804;28;20051;-54
2023/10/05 00:26:20;;;;;;;10.05;5.28;;;;;;;;;;5096810;28;20040;-51
2023/10/05 00:29:00;;;;;;;11.10;5.40;;;;;;;;;;5095818;28;20039;-51
2023/10/05 00:31:26;;;;;;;11.10;5.22;;;;;;;;;;5112663;28;20134;-56
2023/10/05 00:33:56;;;;;;;11.75;5.03;;;;;;;;;;5104386;28;20498;-51
2023/10/05 00:36:24;;;;;;;10.63;5.20;;;;;;;;;;5104251;28;20055;-53
2023/10/05 00:38:51;;;;;;;10.00;5.57;;;;;;;;;;5108370;28;20044;-55
2023/10/05 00:41:17;;;;;;;9.55;5.30;;;;;;;;;;5092003;28;20070;-53
2023/10/05 00:43:46;;;;;;;10.30;5.22;;;;;;;;;;5103830;28;20497;-50
2023/10/05 00:46:13;;;;;;;9.45;5.05;;;;;;;;;;5112781;28;20063;-51
2023/10/05 00:48:48;;;;;;;10.60;4.40;;;;;;;;;;5112487;28;20426;-50
2023/10/05 00:51:17;;;;;;;8.80;4.65;;;;;;;;;;5112345;28;20090;-50
2023/10/05 00:53:47;;;;;;;10.50;5.15;;;;;;;;;;5110384;28;20046;-54
2023/10/05 00:56:16;;;;;;;8.85;4.50;;;;;;;;;;5100092;28;20074;-54
2023/10/05 00:58:44;;;;;;;8.68;4.55;;;;;;;;;;5111802;28;20122;-56
2023/10/05 01:01:15;;;;;;;8.63;4.15;;;;;;;;;;5103908;28;20101;-54
2023/10/05 01:04:18;;;;;;;11.50;5.32;;;;;;;;;;5112106;28;20052;-51
2023/10/05 01:06:39;;;;;;;9.13;4.50;;;;;;;;;;5111608;28;20047;-54
2023/10/05 01:09:07;;;;;;;7.00;4.30;;;;;;;;;;5112400;28;20051;-53
2023/10/05 01:11:44;;;;;;;9.13;4.32;;;;;;;;;;5107951;28;20498;-53
2023/10/05 01:14:12;;;;;;;9.05;5.38;;;;;;;;;;5099532;28;20112;-51
2023/10/05 01:16:43;;;;;;;11.52;5.13;;;;;;;;;;5104321;28;20112;-54
2023/10/05 01:19:10;;;;;;;11.07;5.22;;;;;;;;;;5112095;28;20054;-51
2023/10/05 01:21:39;;;;;;;9.93;5.43;;;;;;;;;;5111773;28;20051;-55
2023/10/05 01:24:09;;;;;;;8.48;4.88;;;;;;;;;;5105681;28;20048;-54
2023/10/05 01:26:37;;;;;;;10.60;5.00;;;;;;;;;;5101813;28;20134;-51
2023/10/05 01:29:04;;;;;;;13.45;6.60;;;;;;;;;;5112139;28;20497;-53
2023/10/05 01:31:32;;;;;;;11.32;5.72;;;;;;;;;;5111793;28;20134;-50
2023/10/05 01:33:59;;;;;;;9.23;4.70;;;;;;;;;;5111687;28;20047;-53
2023/10/05 01:36:26;;;;;;;10.73;5.25;;;;;;;;;;5111951;28;20135;-52
2023/10/05 01:38:54;;;;;;;10.23;4.90;;;;;;;;;;5111583;28;20059;-51
2023/10/05 01:41:22;;;;;;;8.35;4.70;;;;;;;;;;5111572;28;20052;-51
2023/10/05 01:43:49;;;;;;;10.80;6.20;;;;;;;;;;5103719;28;20127;-51
2023/10/05 01:46:16;;;;;;;11.88;5.07;;;;;;;;;;5103566;28;20047;-51
2023/10/05 01:48:43;;;;;;;11.00;5.35;;;;;;;;;;5111636;28;20522;-50
2023/10/05 01:51:14;;;;;;;9.98;5.05;;;;;;;;;;5111558;28;20396;-51
2023/10/05 01:53:42;;;;;;;;;;;;;;;;;;5092184;28;20082;-53
2023/10/05 01:56:18;;;;;;;9.65;4.68;;;;;;;;;;5106231;28;19920;-54
2023/10/05 01:58:52;;;;;;;9.40;4.47;;;;;;;;;;5108292;28;20052;-51
2023/10/05 02:01:20;;;;;;;10.02;5.35;;;;;;;;;;5107587;28;20468;-55
2023/10/05 02:03:48;;;;;;;8.98;4.28;;;;;;;;;;5102838;28;20096;-54
2023/10/05 02:06:15;;;;;;;8.27;3.90;;;;;;;;;;5111793;28;20048;-54
2023/10/05 02:08:42;;;;;;;10.60;4.68;;;;;;;;;;5091612;28;20143;-50
2023/10/05 02:11:09;;;;;;;8.68;3.90;;;;;;;;;;5097635;28;20054;-54
2023/10/05 02:13:36;;;;;;;7.35;4.28;;;;;;;;;;5109244;28;20050;-50
2023/10/05 02:16:12;;;;;;;9.00;4.95;;;;;;;;;;5091106;28;20152;-51
2023/10/05 02:18:38;;;;;;;8.05;4.13;;;;;;;;;;5111543;28;20047;-54
2023/10/05 02:21:08;;;;;;;8.75;4.43;;;;;;;;;;5109185;28;20048;-57
2023/10/05 02:23:40;;;;;;;7.95;3.75;;;;;;;;;;5106653;28;20108;-54
2023/10/05 02:26:10;;;;;;;8.57;4.50;;;;;;;;;;5115185;28;20043;-52
2023/10/05 02:28:39;;;;;;;8.35;4.85;;;;;;;;;;5115132;28;20055;-55
2023/10/05 02:31:08;;;;;;;9.48;4.65;;;;;;;;;;5115235;28;20608;-55
2023/10/05 02:33:38;;;;;;;8.32;4.28;;;;;;;;;;5096498;28;20128;-50
2023/10/05 02:36:11;;;;;;;9.65;4.45;;;;;;;;;;5100867;28;20047;-51
2023/10/05 02:38:39;;;;;;;9.20;4.28;;;;;;;;;;5114931;28;20047;-51
2023/10/05 02:41:08;;;;;;;7.78;4.43;;;;;;;;;;5100182;28;20442;-50
2023/10/05 02:43:39;;;;;;;8.98;4.00;;;;;;;;;;5112829;28;20044;-52
2023/10/05 02:46:11;;;;;;;8.15;4.47;;;;;;;;;;5115105;28;20051;-50
2023/10/05 02:48:41;;;;;;;8.60;4.13;;;;;;;;;;5114946;28;20495;-60
2023/10/05 02:51:11;;;;;;;11.13;4.20;;;;;;;;;;5114717;28;20048;-50
2023/10/05 02:53:41;;;;;;;8.27;4.82;;;;;;;;;;5095378;28;20056;-50
2023/10/05 02:56:22;;;;;;;9.55;4.40;;;;;;;;;;5100978;28;20051;-50
2023/10/05 02:58:54;;;;;;;8.60;4.13;;;;;;;;;;5106438;28;20047;-53
2023/10/05 03:01:23;;;;;;;17.10;6.35;;;;;;;;;;5106103;28;20093;-54
2023/10/05 03:03:51;;;;;;;25.27;6.72;;;;;;;;;;5097932;28;20147;-54
2023/10/05 03:06:18;;;;;;;18.55;6.10;;;;;;;;;;5114427;28;20130;-52
2023/10/05 03:08:48;;;;;;;16.90;5.28;;;;;;;;;;5111259;28;20086;-50
2023/10/05 03:11:15;;;;;;;20.63;5.95;;;;;;;;;;5094005;28;20514;-50
2023/10/05 03:13:42;;;;;;;15.85;5.22;;;;;;;;;;5113436;28;20483;-50
2023/10/05 03:16:11;;;;;;;19.13;7.78;;;;;;;;;;5114366;28;20054;-53
2023/10/05 03:18:42;;;;;;;16.25;6.20;;;;;;;;;;5114201;28;20075;-53
2023/10/05 03:21:12;;;;;;;12.00;4.65;;;;;;;;;;5108139;28;20466;-51
2023/10/05 03:23:40;;;;;;;12.65;4.00;;;;;;;;;;5093865;28;20040;-51
2023/10/05 03:26:08;;;;;;;16.10;5.10;;;;;;;;;;5108652;28;20047;-50
2023/10/05 03:28:35;;;;;;;16.38;5.20;;;;;;;;;;5113608;28;20044;-50
2023/10/05 03:31:07;;;;;;;14.95;5.15;;;;;;;;;;5105460;28;20491;-52
2023/10/05 03:33:35;;;;;;;13.23;4.68;;;;;;;;;;5108565;27;20079;-52
2023/10/05 03:36:06;;;;;;;12.93;5.53;;;;;;;;;;5107226;28;20048;-54
2023/10/05 03:38:35;;;;;;;7.70;4.22;;;;;;;;;;5112966;28;20052;-54
2023/10/05 03:41:04;;;;;;;10.90;4.15;;;;;;;;;;5114552;28;20050;-54
2023/10/05 03:43:32;;;;;;;9.17;4.23;;;;;;;;;;5114756;28;20047;-55
2023/10/05 03:46:07;;;;;;;8.90;4.35;;;;;;;;;;5100747;28;20048;-50
2023/10/05 03:48:38;;;;;;;7.65;3.90;;;;;;;;;;5111929;28;20096;-52
2023/10/05 03:51:15;;;;;;;5.97;3.38;;;;;;;;;;5113654;28;20039;-50
2023/10/05 03:53:43;;;;;;;10.45;3.42;;;;;;;;;;5104946;28;20571;-50
2023/10/05 03:56:12;;;;;;;7.55;3.60;;;;;;;;;;5113864;28;20075;-51
2023/10/05 03:58:39;;;;;;;7.63;3.53;;;;;;;;;;5113498;28;20505;-54
2023/10/05 04:01:10;;;;;;;6.55;3.58;;;;;;;;;;5104896;28;20487;-55
2023/10/05 04:03:38;;;;;;;6.93;3.08;;;;;;;;;;5102959;28;20507;-49
2023/10/05 04:06:16;;;;;;;7.70;3.45;;;;;;;;;;5107242;28;20443;-53
2023/10/05 04:08:46;;;;;;;6.93;3.20;;;;;;;;;;5113353;28;20063;-51
2023/10/05 04:11:12;;;;;;;6.43;3.25;;;;;;;;;;5097818;28;20498;-53
2023/10/05 04:13:39;;;;;;;6.10;2.97;;;;;;;;;;5111955;28;20054;-51
2023/10/05 04:16:08;;;;;;;8.15;3.92;;;;;;;;;;5113460;28;20149;-52
2023/10/05 04:18:35;;;;;;;7.32;3.53;;;;;;;;;;5112913;28;20148;-53
2023/10/05 04:21:02;;;;;;;8.27;3.30;;;;;;;;;;5112686;28;20048;-50
2023/10/05 04:23:29;;;;;;;7.07;3.60;;;;;;;;;;5113195;28;20100;-50
2023/10/05 04:25:57;;;;;;;7.95;3.95;;;;;;;;;;5112842;28;20075;-49
2023/10/05 04:28:32;;;;;;;8.30;3.72;;;;;;;;;;5095809;28;20486;-49
2023/10/05 04:30:59;;;;;;;8.32;4.03;;;;;;;;;;5092273;28;20056;-53
2023/10/05 04:33:26;;;;;;;7.00;3.28;;;;;;;;;;5092051;28;20578;-53
2023/10/05 04:35:53;;;;;;;9.50;3.78;;;;;;;;;;5096439;28;20092;-50
2023/10/05 04:38:22;;;;;;;11.15;3.60;;;;;;;;;;5105108;28;20050;-53
2023/10/05 04:40:51;;;;;;;10.40;3.92;;;;;;;;;;5095093;28;20120;-49
2023/10/05 04:43:20;;;;;;;9.07;3.70;;;;;;;;;;5111063;28;20054;-50
2023/10/05 04:45:47;;;;;;;9.05;4.22;;;;;;;;;;5112468;28;20071;-49
2023/10/05 04:48:14;;;;;;;8.18;3.88;;;;;;;;;;5106315;28;20462;-49
2023/10/05 04:50:40;;;;;;;9.75;3.88;;;;;;;;;;5109193;28;20048;-53
2023/10/05 04:53:09;;;;;;;7.40;4.05;;;;;;;;;;5106646;28;20418;-51
2023/10/05 04:55:41;;;;;;;7.40;4.20;;;;;;;;;;5110686;28;20043;-51
2023/10/05 04:58:23;;;;;;;6.88;3.63;;;;;;;;;;5091859;28;20086;-51
2023/10/05 05:01:14;;;;;;;6.05;2.92;;;;;;;;;;5100183;28;20043;-50
2023/10/05 05:03:55;;;;;;;10.10;3.83;;;;;;;;;;5110933;28;20055;-51
2023/10/05 05:06:25;;;;;;;6.15;3.10;;;;;;;;;;5098658;28;20058;-50
2023/10/05 05:08:53;;;;;;;7.73;3.20;;;;;;;;;;5101570;28;20036;-50
2023/10/05 05:11:20;;;;;;;8.23;3.85;;;;;;;;;;5108636;28;20417;-50
2023/10/05 05:13:47;;;;;;;7.00;3.40;;;;;;;;;;5110208;28;20046;-50
2023/10/05 05:16:16;;;;;;;7.65;3.35;;;;;;;;;;5110362;28;20051;-54
2023/10/05 05:18:42;;;;;;;8.50;3.30;;;;;;;;;;5111902;28;20044;-54
2023/10/05 05:21:11;;;;;;;6.60;3.58;;;;;;;;;;5096808;27;20135;-54
2023/10/05 05:23:38;;;;;;;7.45;3.78;;;;;;;;;;5106893;28;20049;-53
2023/10/05 05:26:09;;;;;;;6.63;3.40;;;;;;;;;;5108144;28;20116;-52
2023/10/05 05:28:37;;;;;;;8.52;3.83;;;;;;;;;;5106393;28;20039;-50
2023/10/05 05:31:14;;;;;;;6.68;3.65;;;;;;;;;;5099861;28;20048;-50
2023/10/05 05:33:44;;;;;;;9.15;4.65;;;;;;;;;;5093546;28;20052;-52
2023/10/05 05:36:13;;;;;;;8.47;3.77;;;;;;;;;;5112131;28;20116;-52
2023/10/05 05:38:40;;;;;;;7.70;3.58;;;;;;;;;;5101097;28;20047;-52
2023/10/05 05:41:15;;;;;;;7.03;4.10;;;;;;;;;;5105869;28;20099;-54
2023/10/05 05:43:41;;;;;;;7.38;3.90;;;;;;;;;;5108644;28;20115;-53
2023/10/05 05:46:12;;;;;;;9.07;4.15;;;;;;;;;;5112070;28;20042;-54
2023/10/05 05:48:39;;;;;;;6.25;3.78;;;;;;;;;;5111879;28;20040;-61
2023/10/05 05:51:13;;;;;;;8.55;4.28;;;;;;;;;;5102283;27;20044;-50
2023/10/05 05:53:41;;;;;;;8.90;4.43;;;;;;;;;;5103505;27;20040;-57
2023/10/05 05:56:08;;;;;;;6.97;3.95;;;;;;;;;;5112976;28;20044;-54
2023/10/05 05:58:35;;;;;;;9.65;4.70;;;;;;;;;;5109508;28;20043;-54
2023/10/05 06:01:02;;;;;;;9.80;4.95;;;;;;;;;;5109579;28;20047;-57
2023/10/05 06:03:28;;;;;;;9.20;4.45;;;;;;;;;;5112782;28;20050;-48
2023/10/05 06:05:55;;;;;;;12.85;6.63;;;;;;;;;;5108452;28;20052;-51
2023/10/05 06:08:23;;;;;;;7.85;4.07;;;;;;;;;;5115667;28;20075;-50
2023/10/05 06:10:51;;;;;;;8.45;4.03;;;;;;;;;;5105740;28;21687;-49
2023/10/05 06:13:19;;;;;;;9.75;5.05;;;;;;;;;;5105643;27;20495;-50
2023/10/05 06:15:46;;;;;;;8.10;4.47;;;;;;;;;;5107684;28;20043;-54
2023/10/05 06:18:13;;;;;;;8.75;4.47;;;;;;;;;;5106569;28;20044;-51
2023/10/05 06:20:41;;;;;;;9.02;3.90;;;;;;;;;;5107837;28;20051;-58
2023/10/05 06:23:08;;;;;;;7.13;4.57;;;;;;;;;;5105742;28;20040;-53
2023/10/05 06:25:36;;;;;;;7.72;4.22;;;;;;;;;;5115101;28;20142;-54
2023/10/05 06:28:02;;;;;;;8.63;4.68;;;;;;;;;;5102842;28;20142;-51
2023/10/05 06:30:29;;;;;;;10.18;5.38;;;;;;;;;;5102218;27;20396;-55
2023/10/05 06:32:58;;;;;;;8.48;4.68;;;;;;;;;;5108479;27;20164;-52
2023/10/05 06:35:25;;;;;;;8.18;4.28;;;;;;;;;;5114964;28;20050;-55
2023/10/05 06:37:52;;;;;;;11.45;4.30;;;;;;;;;;5102978;28;20122;-54
2023/10/05 06:40:22;;;;;;;8.32;4.32;;;;;;;;;;5108865;27;20050;-54
2023/10/05 06:42:51;;;;;;;9.25;4.85;;;;;;;;;;5104039;27;20036;-50
2023/10/05 06:45:19;;;;;;;7.43;3.92;;;;;;;;;;5114724;28;20052;-54
2023/10/05 06:47:47;;;;;;;9.65;5.00;;;;;;;;;;5114956;28;20514;-53
2023/10/05 06:50:15;;;;;;;8.65;4.25;;;;;;;;;;5114810;28;20551;-51
2023/10/05 06:52:43;;;;;;;10.07;5.85;;;;;;;;;;5114629;28;20055;-53
2023/10/05 06:55:11;;;;;;;8.88;5.35;;;;;;;;;;5114743;28;20077;-50
2023/10/05 06:57:39;;;;;;;10.98;6.25;;;;;;;;;;5114643;28;20055;-52
2023/10/05 07:00:13;;;;;;;11.23;6.80;;;;;;;;;;5103842;27;20050;-52
2023/10/05 07:02:40;;;;;;;10.27;5.88;;;;;;;;;;5110190;27;20506;-48
2023/10/05 07:05:08;;;;;;;8.68;5.38;;;;;;;;;;5107743;28;20463;-52
2023/10/05 07:07:35;;;;;;;10.15;5.00;;;;;;;;;;5110964;28;20093;-52
2023/10/05 07:10:03;;;;;;;8.02;5.32;;;;;;;;;;5108508;28;20052;-52
2023/10/05 07:12:30;;;;;;;8.13;4.50;;;;;;;;;;5109381;27;20043;-52
2023/10/05 07:14:57;;;;;;;8.60;4.90;;;;;;;;;;5114965;27;20655;-54
2023/10/05 07:17:26;;;;;;;7.60;4.43;;;;;;;;;;5113380;27;20043;-50
2023/10/05 07:19:54;;;;;;;8.52;4.32;;;;;;;;;;5110906;27;20529;-54
2023/10/05 07:22:21;;;;;;;8.93;4.75;;;;;;;;;;5114709;27;20040;-58
2023/10/05 07:24:48;;;;;;;8.65;4.88;;;;;;;;;;5114155;27;20032;-54
2023/10/05 07:27:14;;;;;;;11.43;5.35;;;;;;;;;;5109679;28;20134;-54
2023/10/05 07:29:44;;;;;;;7.45;4.65;;;;;;;;;;5106274;27;20094;-52
2023/10/05 07:32:12;;;;;;;9.48;4.60;;;;;;;;;;5113303;27;20051;-51
2023/10/05 07:34:41;;;;;;;7.20;4.57;;;;;;;;;;5110599;28;20138;-50
2023/10/05 07:37:10;;;;;;;11.38;5.05;;;;;;;;;;5107096;28;20418;-54
2023/10/05 07:39:37;;;;;;;7.00;4.55;;;;;;;;;;5112561;27;20060;-53
2023/10/05 07:42:04;;;;;;;8.35;4.70;;;;;;;;;;5110107;27;20040;-55
2023/10/05 07:44:31;;;;;;;8.93;5.05;;;;;;;;;;5106281;27;20047;-56
2023/10/05 07:46:57;;;;;;;8.70;5.43;;;;;;;;;;5109522;27;20076;-50
2023/10/05 07:49:24;;;;;;;8.85;4.97;;;;;;;;;;5107256;28;20071;-58
2023/10/05 07:51:52;;;;;;;8.00;5.22;;;;;;;;;;5107445;28;20554;-53
2023/10/05 07:54:19;;;;;;;7.72;5.47;;;;;;;;;;5107631;28;20075;-55
2023/10/05 07:56:46;;;;;;;11.57;5.38;;;;;;;;;;5111346;27;20142;-55
2023/10/05 07:59:13;;;;;;;9.65;5.70;;;;;;;;;;5109795;27;20571;-56
2023/10/05 08:01:40;;;;;;;8.07;4.60;;;;;;;;;;5111806;27;20040;-53
2023/10/05 08:04:11;;;;;;;9.98;5.10;;;;;;;;;;5110066;27;20343;-52
2023/10/05 08:06:37;;;;;;;;;;;;;;;;;;5109024;28;20043;-56
2023/10/05 08:09:06;;;;;;;13.15;5.50;;;;;;;;;;5110136;28;20010;-50
2023/10/05 08:11:33;;;;;;;8.85;4.75;;;;;;;;;;5107518;28;20044;-51
2023/10/05 08:13:59;;;;;;;8.85;4.60;;;;;;;;;;5101452;28;20042;-60
2023/10/05 08:16:26;;;;;;;7.45;4.95;;;;;;;;;;5109664;27;20484;-55
2023/10/05 08:18:54;;;;;;;9.60;4.70;;;;;;;;;;5110224;27;20044;-54
2023/10/05 08:21:21;;;;;;;8.80;4.65;;;;;;;;;;5104486;27;20097;-53
2023/10/05 08:23:51;;;;;;;9.18;4.78;;;;;;;;;;5106582;27;20044;-60
2023/10/05 08:26:19;;;;;;;10.05;4.70;;;;;;;;;;5105203;28;20137;-53
2023/10/05 08:28:49;;;;;;;11.18;4.30;;;;;;;;;;5106571;28;20407;-52
2023/10/05 08:31:22;;;;;;;9.63;5.82;;;;;;;;;;5106108;27;20048;-53
2023/10/05 08:33:49;;;;;;;9.23;4.60;;;;;;;;;;5107207;27;20051;-52
2023/10/05 08:36:17;;;;;;;8.23;4.25;;;;;;;;;;5109516;28;20036;-51
2023/10/05 08:38:47;;;;;;;9.75;4.70;;;;;;;;;;5108574;28;20050;-50
2023/10/05 08:41:24;;;;;;;11.32;4.50;;;;;;;;;;5105389;28;20092;-51
2023/10/05 08:43:53;;;;;;;7.82;4.90;;;;;;;;;;5107927;27;20166;-57
2023/10/05 08:46:21;;;;;;;8.38;4.53;;;;;;;;;;5108743;28;20071;-54
2023/10/05 08:48:49;;;;;;;12.45;5.05;;;;;;;;;;5102657;28;20043;-53
2023/10/05 08:51:16;;;;;;;10.57;5.53;;;;;;;;;;5107938;27;20471;-57
2023/10/05 08:53:48;;;;;;;8.60;4.40;;;;;;;;;;5106776;27;20052;-53
2023/10/05 08:56:16;;;;;;;9.38;4.80;;;;;;;;;;5104350;28;20475;-53
2023/10/05 08:58:46;;;;;;;8.57;5.47;;;;;;;;;;5105905;27;20115;-54
2023/10/05 09:01:27;;;;;;;8.18;4.80;;;;;;;;;;5110106;27;20054;-54
2023/10/05 09:04:01;;;;;;;7.72;4.50;;;;;;;;;;5106317;27;20497;-54
2023/10/05 09:06:28;;;;;;;11.25;4.95;;;;;;;;;;5108297;27;20051;-54
2023/10/05 09:09:06;;;;;;;7.82;4.28;;;;;;;;;;5108456;27;20044;-58
2023/10/05 09:11:34;;;;;;;9.68;4.75;;;;;;;;;;5105872;27;20063;-54
2023/10/05 09:14:12;;;;;;;11.32;4.32;;;;;;;;;;5101839;27;20434;-53
2023/10/05 09:16:43;;;;;;;8.93;4.45;;;;;;;;;;5106840;27;20071;-51
2023/10/05 09:19:12;;;;;;;;;;;;;;;;;;5106371;27;20047;-54
2023/10/05 09:22:05;;;;;;;7.70;4.43;;;;;;;;;;5106409;27;19924;-59
2023/10/05 09:24:32;;;;;;;8.15;4.43;;;;;;;;;;5107972;27;20124;-55
2023/10/05 09:27:09;;;;;;;8.65;4.53;;;;;;;;;;5107343;27;20093;-54
2023/10/05 09:29:39;;;;;;;10.15;4.28;;;;;;;;;;5105082;28;20054;-54
2023/10/05 09:32:11;;;;;;;7.88;4.53;;;;;;;;;;5107401;28;20050;-56
2023/10/05 09:34:44;;;;;;;8.68;4.45;;;;;;;;;;5105896;28;20411;-58
2023/10/05 09:37:13;;;;;;;12.18;4.88;;;;;;;;;;5103896;27;20479;-60
2023/10/05 09:39:44;;;;;;;10.85;4.65;;;;;;;;;;5106721;27;20051;-60
2023/10/05 09:42:16;;;;;;;10.20;5.95;;;;;;;;;;5104240;28;20902;-54
2023/10/05 09:44:51;;;;;;;10.73;6.03;;;;;;;;;;5106884;28;20074;-54
2023/10/05 09:47:25;;;;;;;7.78;4.30;;;;;;;;;;5107741;28;20487;-53
2023/10/05 09:49:53;;;;;;;11.05;5.13;;;;;;;;;;5111391;28;20443;-51
2023/10/05 09:52:22;;;;;;;10.13;5.00;;;;;;;;;;5107235;28;20483;-54
2023/10/05 09:54:49;;;;;;;9.23;5.07;;;;;;;;;;5109134;28;20580;-64
2023/10/05 09:57:17;;;;;;;10.05;5.10;;;;;;;;;;5108039;28;20071;-60
2023/10/05 09:59:51;;;;;;;9.45;4.68;;;;;;;;;;5104764;28;21725;-64
2023/10/05 10:02:22;;;;;;;8.05;4.45;;;;;;;;;;5106091;28;20604;-55
2023/10/05 10:04:50;;;;;;;7.78;4.22;;;;;;;;;;5106159;28;20044;-56
2023/10/05 10:07:22;;;;;;;9.32;4.63;;;;;;;;;;5107783;28;20066;-56
2023/10/05 10:09:53;;;;;;;9.15;4.70;;;;;;;;;;5111142;28;20296;-55
2023/10/05 10:12:26;;;;;;;7.45;4.15;;;;;;;;;;5105002;28;20099;-55
2023/10/05 10:14:58;;;;;;;7.30;3.92;;;;;;;;;;5108397;28;20050;-52
2023/10/05 10:17:30;;;;;;;9.80;5.13;;;;;;;;;;5108038;28;20104;-49
2023/10/05 10:20:15;;;;;;;9.20;4.97;;;;;;;;;;5107886;28;20143;-53
2023/10/05 10:22:50;;;;;;;9.23;4.88;;;;;;;;;;5104425;28;20042;-54
2023/10/05 10:25:38;;;;;;;8.00;4.53;;;;;;;;;;5105635;28;20044;-53
2023/10/05 10:28:24;;;;;;;7.50;4.32;;;;;;;;;;5110559;28;20314;-57
2023/10/05 10:31:17;;;;;;;6.43;4.13;;;;;;;;;;5107896;28;20054;-58
2023/10/05 10:33:50;;;;;;;8.80;4.63;;;;;;;;;;5111996;28;20047;-54
2023/10/05 10:36:20;;;;;;;10.60;4.82;;;;;;;;;;5107093;28;20040;-57
2023/10/05 10:38:49;;;;;;;;;;;;;;;;;;5107041;28;20044;-52
2023/10/05 10:41:17;;;;;;;7.93;4.00;;;;;;;;;;5105775;28;20016;-51
2023/10/05 10:43:49;;;;;;;7.25;4.22;;;;;;;;;;5108718;27;20645;-52
2023/10/05 10:46:28;;;;;;;6.75;3.85;;;;;;;;;;5110740;28;20122;-54
2023/10/05 10:49:00;;;;;;;8.65;3.97;;;;;;;;;;5109970;28;20044;-55
2023/10/05 10:51:31;;;;;;;8.43;4.10;;;;;;;;;;5104120;28;20127;-53
2023/10/05 10:53:59;;;;;;;8.32;4.13;;;;;;;;;;5104872;28;20051;-54
2023/10/05 10:56:34;;;;;;;7.38;3.92;;;;;;;;;;5109007;28;20043;-52
2023/10/05 10:59:10;;;;;;;10.25;4.60;;;;;;;;;;5110028;28;20100;-50
2023/10/05 11:01:44;;;;;;;9.98;4.32;;;;;;;;;;5109412;28;20043;-55
2023/10/05 11:04:23;;;;;;;10.20;4.68;;;;;;;;;;5103575;28;20142;-50
2023/10/05 11:06:59;;;;;;;8.53;3.90;;;;;;;;;;5111913;27;20078;-54
2023/10/05 11:09:35;;;;;;;9.82;3.58;;;;;;;;;;5114061;27;20369;-55
2023/10/05 11:12:11;;;;;;;10.80;4.10;;;;;;;;;;5109513;27;20515;-57
2023/10/05 11:14:40;;;;;;;12.50;4.55;;;;;;;;;;5108363;28;20043;-57
2023/10/05 11:17:23;;;;;;;9.85;4.03;;;;;;;;;;5105977;28;20483;-50
2023/10/05 11:19:51;;;;;;;8.55;4.47;;;;;;;;;;5107698;27;20092;-56
2023/10/05 11:22:23;;;;;;;8.50;3.90;;;;;;;;;;5107479;27;20065;-61
2023/10/05 11:27:55;;;;;;;10.73;4.43;;;;;;;;;;5113972;27;20051;-54
2023/10/05 11:30:24;;;;;;;9.60;4.55;;;;;;;;;;5109820;27;20075;-54
2023/10/05 11:32:56;;;;;;;7.95;3.80;;;;;;;;;;5109360;27;20055;-53
2023/10/05 11:35:42;;;;;;;10.15;4.13;;;;;;;;;;5104934;28;20078;-57
2023/10/05 11:38:14;;;;;;;7.30;3.58;;;;;;;;;;5110789;27;20559;-56
2023/10/05 11:40:48;;;;;;;7.32;3.90;;;;;;;;;;5107787;27;20051;-55
2023/10/05 11:43:17;;;;;;;9.25;4.60;;;;;;;;;;5108427;28;20134;-55
2023/10/05 11:45:57;;;;;;;9.80;3.75;;;;;;;;;;5106835;28;20062;-55
2023/10/05 11:48:32;;;;;;;9.30;3.63;;;;;;;;;;5109716;28;20043;-54
2023/10/05 11:51:01;;;;;;;6.70;3.25;;;;;;;;;;5105840;27;20126;-56
2023/10/05 11:53:27;;;;;;;9.05;3.85;;;;;;;;;;5110126;27;20080;-62
2023/10/05 11:55:55;;;;;;;12.93;5.85;;;;;;;;;;5104542;27;20048;-60
2023/10/05 11:58:22;;;;;;;9.77;4.15;;;;;;;;;;5110532;27;20436;-53
2023/10/05 12:00:50;;;;;;;11.57;5.22;;;;;;;;;;5110619;28;20487;-54
2023/10/05 12:03:17;;;;;;;12.70;5.30;;;;;;;;;;5110686;28;20059;-54
2023/10/05 12:05:44;;;;;;;8.13;3.78;;;;;;;;;;5109629;28;20510;-55
2023/10/05 12:08:13;;;;;;;6.88;3.22;;;;;;;;;;5107717;28;20056;-56
2023/10/05 12:10:41;;;;;;;7.05;3.35;;;;;;;;;;5109090;28;20040;-56
2023/10/05 12:13:08;;;;;;;8.10;3.08;;;;;;;;;;5110723;28;20051;-51
2023/10/05 12:15:36;;;;;;;7.32;3.50;;;;;;;;;;5108857;28;20050;-54
2023/10/05 12:18:12;;;;;;;9.85;3.63;;;;;;;;;;5110862;28;20043;-54
2023/10/05 12:20:41;;;;;;;7.55;3.20;;;;;;;;;;5109400;27;20050;-53
2023/10/05 12:23:10;;;;;;;6.28;3.08;;;;;;;;;;5111859;27;20046;-52
2023/10/05 12:25:39;;;;;;;7.67;3.37;;;;;;;;;;5109488;27;20117;-52
2023/10/05 12:28:06;;;;;;;7.72;3.00;;;;;;;;;;5108519;27;20047;-56
2023/10/05 12:30:35;;;;;;;6.30;3.27;;;;;;;;;;5109573;27;20047;-55
2023/10/05 12:33:03;;;;;;;7.03;3.05;;;;;;;;;;5111031;27;20138;-54
2023/10/05 12:35:30;;;;;;;7.78;3.45;;;;;;;;;;5109775;27;20130;-55
2023/10/05 12:37:58;;;;;;;7.05;3.30;;;;;;;;;;5112229;27;20483;-56
2023/10/05 12:40:33;;;;;;;7.25;3.50;;;;;;;;;;5112138;27;20085;-55
2023/10/05 12:43:02;;;;;;;8.10;3.72;;;;;;;;;;5114019;27;20089;-53
2023/10/05 12:45:29;;;;;;;7.05;3.65;;;;;;;;;;5110453;27;20079;-54
2023/10/05 12:47:56;;;;;;;6.93;3.70;;;;;;;;;;5111142;27;20130;-56
2023/10/05 12:50:26;;;;;;;6.90;4.05;;;;;;;;;;5104431;27;20132;-52
2023/10/05 12:52:53;;;;;;;8.75;3.22;;;;;;;;;;5109033;27;20051;-55
2023/10/05 12:55:20;;;;;;;6.57;3.28;;;;;;;;;;5110027;27;20129;-56
2023/10/05 12:57:50;;;;;;;7.97;3.63;;;;;;;;;;5109339;27;20051;-52
2023/10/05 13:00:25;;;;;;;6.53;3.75;;;;;;;;;;5108494;28;20483;-51
2023/10/05 13:02:53;;;;;;;9.93;4.03;;;;;;;;;;5106296;27;20051;-53
2023/10/05 13:05:22;;;;;;;7.88;3.53;;;;;;;;;;5105720;27;20131;-55
2023/10/05 13:07:53;;;;;;;9.23;4.47;;;;;;;;;;5108231;28;20071;-56
2023/10/05 13:10:26;;;;;;;8.98;4.65;;;;;;;;;;5112144;27;20050;-55
2023/10/05 13:12:53;;;;;;;8.30;3.53;;;;;;;;;;5108935;27;20044;-55
2023/10/05 13:15:24;;;;;;;7.93;4.75;;;;;;;;;;5106034;28;20035;-55
2023/10/05 13:17:52;;;;;;;7.80;4.72;;;;;;;;;;5108833;28;20039;-54
2023/10/05 13:20:24;;;;;;;7.07;3.65;;;;;;;;;;5104431;28;20130;-54
2023/10/05 13:22:53;;;;;;;8.88;4.10;;;;;;;;;;5107459;27;20370;-56
2023/10/05 13:25:22;;;;;;;9.87;4.57;;;;;;;;;;5107189;28;20048;-52
2023/10/05 13:27:50;;;;;;;9.10;3.83;;;;;;;;;;5105927;27;20474;-54
2023/10/05 13:30:22;;;;;;;8.45;3.90;;;;;;;;;;5107247;28;20081;-54
2023/10/05 13:32:57;;;;;;;8.27;4.80;;;;;;;;;;5110479;27;20055;-55
2023/10/05 13:35:29;;;;;;;8.50;4.15;;;;;;;;;;5106081;28;20043;-55
2023/10/05 13:37:57;;;;;;;8.18;3.78;;;;;;;;;;5104789;28;20051;-51
2023/10/05 13:40:34;;;;;;;9.77;4.07;;;;;;;;;;5108539;28;20051;-54
2023/10/05 13:43:01;;;;;;;9.40;3.97;;;;;;;;;;5106611;28;20135;-53
2023/10/05 13:45:28;;;;;;;6.80;3.45;;;;;;;;;;5108804;28;20142;-55
2023/10/05 13:48:00;;;;;;;8.00;3.88;;;;;;;;;;5111318;28;20059;-56
2023/10/05 13:50:28;;;;;;;9.15;3.88;;;;;;;;;;5103455;28;20097;-54
2023/10/05 13:52:55;;;;;;;9.40;3.63;;;;;;;;;;5108770;28;20131;-55
2023/10/05 13:55:23;;;;;;;9.98;4.15;;;;;;;;;;5108566;28;20051;-55
2023/10/05 13:57:50;;;;;;;9.10;4.15;;;;;;;;;;5110825;28;20118;-55
2023/10/05 14:00:19;;;;;;;7.57;3.60;;;;;;;;;;5106762;28;20040;-55
2023/10/05 14:02:46;;;;;;;7.28;3.72;;;;;;;;;;5107489;28;20059;-53
2023/10/05 14:05:14;;;;;;;8.40;3.47;;;;;;;;;;5108907;28;20054;-52
2023/10/05 14:07:40;;;;;;;6.25;3.20;;;;;;;;;;5107550;28;20035;-54
2023/10/05 14:10:10;;;;;;;7.00;3.47;;;;;;;;;;5109487;28;20058;-55
2023/10/05 14:12:39;;;;;;;8.10;3.75;;;;;;;;;;5110203;27;20557;-56
2023/10/05 14:15:08;;;;;;;8.57;3.42;;;;;;;;;;5114100;27;20047;-51
2023/10/05 14:17:35;;;;;;;6.22;3.30;;;;;;;;;;5107349;27;20055;-53
2023/10/05 14:20:02;;;;;;;7.88;3.25;;;;;;;;;;5111040;28;20040;-55
2023/10/05 14:22:33;;;;;;;7.03;3.10;;;;;;;;;;5111563;28;20509;-53
2023/10/05 14:25:07;;;;;;;7.93;3.00;;;;;;;;;;5109865;28;20054;-53
2023/10/05 14:27:34;;;;;;;8.15;3.42;;;;;;;;;;5110465;27;20131;-50
2023/10/05 14:30:06;;;;;;;7.22;3.17;;;;;;;;;;5113317;27;20066;-55
2023/10/05 14:32:36;;;;;;;11.70;4.20;;;;;;;;;;5116947;27;20107;-53
2023/10/05 14:35:07;;;;;;;7.80;2.97;;;;;;;;;;5112406;28;20134;-56
2023/10/05 14:37:40;;;;;;;7.10;3.40;;;;;;;;;;5117017;27;20048;-57
2023/10/05 14:40:13;;;;;;;8.02;3.35;;;;;;;;;;5110280;28;20075;-56
2023/10/05 14:42:40;;;;;;;5.95;3.35;;;;;;;;;;5111985;27;20039;-56
2023/10/05 14:45:08;;;;;;;8.23;3.65;;;;;;;;;;5107100;28;20044;-56
2023/10/05 14:47:35;;;;;;;7.22;3.20;;;;;;;;;;5108296;28;20545;-52
2023/10/05 14:50:07;;;;;;;6.95;2.55;;;;;;;;;;5108969;27;20055;-55
2023/10/05 14:52:36;;;;;;;8.27;2.78;;;;;;;;;;5108992;27;20046;-57
2023/10/05 14:55:03;;;;;;;7.35;3.10;;;;;;;;;;5109081;28;20084;-57
2023/10/05 14:57:30;;;;;;;8.43;3.03;;;;;;;;;;5110367;27;20498;-58
2023/10/05 14:59:57;;;;;;;8.02;3.20;;;;;;;;;;5111675;27;20059;-57